sensor_id;sensor_type;location;lat;lon;timestamp;P1;durP1;ratioP1;P2;durP2;ratioP2
42006;SDS011;27696;42.704;23.304;2023-10-19T00:02:22;25.90;;;18.83;;
42006;SDS011;27696;42.704;23.304;2023-10-19T00:04:48;22.35;;;17.58;;
42006;SDS011;27696;42.704;23.304;2023-10-19T00:07:14;27.42;;;18.45;;
42006;SDS011;27696;42.704;23.304;2023-10-19T00:09:41;25.23;;;17.27;;
42006;SDS011;27696;42.704;23.304;2023-10-19T00:12:10;20.80;;;17.25;;
42006;SDS011;27696;42.704;23.304;2023-10-19T00:14:36;21.92;;;18.27;;
42006;SDS011;27696;42.704;23.304;2023-10-19T00:17:01;23.65;;;16.73;;
42006;SDS011;27696;42.704;23.304;2023-10-19T00:19:36;26.98;;;18.50;;
42006;SDS011;27696;42.704;23.304;2023-10-19T00:22:06;21.08;;;17.63;;
42006;SDS011;27696;42.704;23.304;2023-10-19T00:24:40;25.33;;;18.60;;
42006;SDS011;27696;42.704;23.304;2023-10-19T00:27:06;25.65;;;18.80;;
42006;SDS011;27696;42.704;23.304;2023-10-19T00:29:40;24.85;;;18.52;;
42006;SDS011;27696;42.704;23.304;2023-10-19T00:32:06;27.67;;;18.75;;
42006;SDS011;27696;42.704;23.304;2023-10-19T00:34:37;25.67;;;20.05;;
42006;SDS011;27696;42.704;23.304;2023-10-19T00:37:03;23.40;;;19.25;;
42006;SDS011;27696;42.704;23.304;2023-10-19T00:39:34;23.90;;;18.98;;
42006;SDS011;27696;42.704;23.304;2023-10-19T00:42:12;22.55;;;19.55;;
42006;SDS011;27696;42.704;23.304;2023-10-19T00:44:40;24.40;;;19.23;;
42006;SDS011;27696;42.704;23.304;2023-10-19T00:47:14;25.93;;;19.67;;
42006;SDS011;27696;42.704;23.304;2023-10-19T00:49:44;26.67;;;20.05;;
42006;SDS011;27696;42.704;23.304;2023-10-19T00:52:11;24.58;;;20.05;;
42006;SDS011;27696;42.704;23.304;2023-10-19T00:54:38;25.05;;;19.50;;
42006;SDS011;27696;42.704;23.304;2023-10-19T00:57:16;23.75;;;18.90;;
42006;SDS011;27696;42.704;23.304;2023-10-19T00:59:46;25.10;;;19.55;;
42006;SDS011;27696;42.704;23.304;2023-10-19T01:02:15;21.63;;;18.13;;
42006;SDS011;27696;42.704;23.304;2023-10-19T01:04:54;24.35;;;17.05;;
42006;SDS011;27696;42.704;23.304;2023-10-19T01:07:31;21.38;;;17.65;;
42006;SDS011;27696;42.704;23.304;2023-10-19T01:10:01;24.25;;;18.67;;
42006;SDS011;27696;42.704;23.304;2023-10-19T01:12:31;19.55;;;17.05;;
42006;SDS011;27696;42.704;23.304;2023-10-19T01:17:58;24.83;;;18.65;;
42006;SDS011;27696;42.704;23.304;2023-10-19T01:20:24;26.67;;;18.73;;
42006;SDS011;27696;42.704;23.304;2023-10-19T01:23:06;23.45;;;20.05;;
42006;SDS011;27696;42.704;23.304;2023-10-19T01:28:24;27.23;;;20.10;;
42006;SDS011;27696;42.704;23.304;2023-10-19T01:31:08;29.23;;;21.42;;
42006;SDS011;27696;42.704;23.304;2023-10-19T01:33:48;27.42;;;21.13;;
42006;SDS011;27696;42.704;23.304;2023-10-19T01:36:14;28.67;;;21.92;;
42006;SDS011;27696;42.704;23.304;2023-10-19T01:38:41;29.70;;;20.88;;
42006;SDS011;27696;42.704;23.304;2023-10-19T01:41:08;27.85;;;22.52;;
42006;SDS011;27696;42.704;23.304;2023-10-19T01:43:44;31.85;;;23.02;;
42006;SDS011;27696;42.704;23.304;2023-10-19T01:46:11;28.33;;;21.65;;
42006;SDS011;27696;42.704;23.304;2023-10-19T01:48:41;30.13;;;21.65;;
42006;SDS011;27696;42.704;23.304;2023-10-19T01:51:07;27.83;;;21.98;;
42006;SDS011;27696;42.704;23.304;2023-10-19T01:53:39;32.20;;;21.60;;
42006;SDS011;27696;42.704;23.304;2023-10-19T01:56:05;27.60;;;21.52;;
42006;SDS011;27696;42.704;23.304;2023-10-19T01:58:37;27.77;;;21.42;;
42006;SDS011;27696;42.704;23.304;2023-10-19T02:01:06;29.80;;;21.85;;
42006;SDS011;27696;42.704;23.304;2023-10-19T02:03:39;26.38;;;21.15;;
42006;SDS011;27696;42.704;23.304;2023-10-19T02:06:11;27.48;;;21.05;;
42006;SDS011;27696;42.704;23.304;2023-10-19T02:08:45;26.50;;;20.17;;
42006;SDS011;27696;42.704;23.304;2023-10-19T02:11:15;27.00;;;20.40;;
42006;SDS011;27696;42.704;23.304;2023-10-19T02:13:44;28.48;;;21.50;;
42006;SDS011;27696;42.704;23.304;2023-10-19T02:16:14;28.13;;;21.92;;
42006;SDS011;27696;42.704;23.304;2023-10-19T02:19:02;33.47;;;25.58;;
42006;SDS011;27696;42.704;23.304;2023-10-19T02:21:27;37.45;;;29.33;;
42006;SDS011;27696;42.704;23.304;2023-10-19T02:23:56;33.42;;;28.58;;
42006;SDS011;27696;42.704;23.304;2023-10-19T02:26:22;36.95;;;31.55;;
42006;SDS011;27696;42.704;23.304;2023-10-19T02:28:51;43.70;;;33.97;;
42006;SDS011;27696;42.704;23.304;2023-10-19T02:31:17;43.85;;;33.30;;
42006;SDS011;27696;42.704;23.304;2023-10-19T02:33:53;43.08;;;34.10;;
42006;SDS011;27696;42.704;23.304;2023-10-19T02:36:45;35.80;;;30.20;;
42006;SDS011;27696;42.704;23.304;2023-10-19T02:39:13;40.70;;;30.50;;
42006;SDS011;27696;42.704;23.304;2023-10-19T02:41:43;40.50;;;31.67;;
42006;SDS011;27696;42.704;23.304;2023-10-19T02:44:13;39.58;;;33.42;;
42006;SDS011;27696;42.704;23.304;2023-10-19T02:46:39;38.50;;;32.00;;
42006;SDS011;27696;42.704;23.304;2023-10-19T02:49:07;38.10;;;31.55;;
42006;SDS011;27696;42.704;23.304;2023-10-19T02:51:41;36.63;;;28.02;;
42006;SDS011;27696;42.704;23.304;2023-10-19T02:54:09;35.33;;;27.25;;
42006;SDS011;27696;42.704;23.304;2023-10-19T02:56:42;33.22;;;26.40;;
42006;SDS011;27696;42.704;23.304;2023-10-19T02:59:09;37.17;;;27.27;;
42006;SDS011;27696;42.704;23.304;2023-10-19T03:01:34;33.83;;;26.83;;
42006;SDS011;27696;42.704;23.304;2023-10-19T03:04:00;31.73;;;25.48;;
42006;SDS011;27696;42.704;23.304;2023-10-19T03:06:26;34.58;;;27.15;;
42006;SDS011;27696;42.704;23.304;2023-10-19T03:08:59;32.28;;;26.40;;
42006;SDS011;27696;42.704;23.304;2023-10-19T03:11:47;35.33;;;25.50;;
42006;SDS011;27696;42.704;23.304;2023-10-19T03:14:17;33.25;;;26.75;;
42006;SDS011;27696;42.704;23.304;2023-10-19T03:16:43;34.28;;;24.88;;
42006;SDS011;27696;42.704;23.304;2023-10-19T03:19:08;31.48;;;25.27;;
42006;SDS011;27696;42.704;23.304;2023-10-19T03:21:40;31.42;;;24.98;;
42006;SDS011;27696;42.704;23.304;2023-10-19T03:24:25;32.63;;;25.85;;
42006;SDS011;27696;42.704;23.304;2023-10-19T03:27:06;35.22;;;25.30;;
42006;SDS011;27696;42.704;23.304;2023-10-19T03:29:43;33.42;;;25.45;;
42006;SDS011;27696;42.704;23.304;2023-10-19T03:32:20;32.85;;;25.92;;
42006;SDS011;27696;42.704;23.304;2023-10-19T03:34:51;40.22;;;24.98;;
42006;SDS011;27696;42.704;23.304;2023-10-19T03:37:20;36.15;;;26.02;;
42006;SDS011;27696;42.704;23.304;2023-10-19T03:39:47;38.83;;;30.08;;
42006;SDS011;27696;42.704;23.304;2023-10-19T03:42:13;39.05;;;26.45;;
42006;SDS011;27696;42.704;23.304;2023-10-19T03:44:39;34.83;;;26.25;;
42006;SDS011;27696;42.704;23.304;2023-10-19T03:47:11;36.63;;;27.13;;
42006;SDS011;27696;42.704;23.304;2023-10-19T03:49:37;31.55;;;23.40;;
42006;SDS011;27696;42.704;23.304;2023-10-19T03:52:07;30.17;;;24.02;;
42006;SDS011;27696;42.704;23.304;2023-10-19T03:54:36;29.85;;;23.67;;
42006;SDS011;27696;42.704;23.304;2023-10-19T03:57:05;30.40;;;23.75;;
42006;SDS011;27696;42.704;23.304;2023-10-19T03:59:36;37.47;;;24.30;;
42006;SDS011;27696;42.704;23.304;2023-10-19T04:02:05;30.38;;;24.05;;
42006;SDS011;27696;42.704;23.304;2023-10-19T04:04:35;35.15;;;24.95;;
42006;SDS011;27696;42.704;23.304;2023-10-19T04:07:01;30.55;;;24.42;;
42006;SDS011;27696;42.704;23.304;2023-10-19T04:09:35;32.08;;;24.52;;
42006;SDS011;27696;42.704;23.304;2023-10-19T04:12:14;32.38;;;24.58;;
42006;SDS011;27696;42.704;23.304;2023-10-19T04:14:42;31.45;;;24.50;;
42006;SDS011;27696;42.704;23.304;2023-10-19T04:17:07;32.72;;;24.30;;
42006;SDS011;27696;42.704;23.304;2023-10-19T04:19:37;30.52;;;23.00;;
42006;SDS011;27696;42.704;23.304;2023-10-19T04:22:02;31.15;;;23.52;;
42006;SDS011;27696;42.704;23.304;2023-10-19T04:24:29;33.05;;;23.63;;
42006;SDS011;27696;42.704;23.304;2023-10-19T04:26:58;32.70;;;24.08;;
42006;SDS011;27696;42.704;23.304;2023-10-19T04:29:24;34.20;;;23.83;;
42006;SDS011;27696;42.704;23.304;2023-10-19T04:31:52;32.28;;;23.45;;
42006;SDS011;27696;42.704;23.304;2023-10-19T04:34:21;34.67;;;23.75;;
42006;SDS011;27696;42.704;23.304;2023-10-19T04:36:49;35.25;;;23.75;;
42006;SDS011;27696;42.704;23.304;2023-10-19T04:39:15;30.98;;;23.48;;
42006;SDS011;27696;42.704;23.304;2023-10-19T04:41:44;33.00;;;23.85;;
42006;SDS011;27696;42.704;23.304;2023-10-19T04:44:10;33.47;;;24.52;;
42006;SDS011;27696;42.704;23.304;2023-10-19T04:46:36;33.53;;;25.02;;
42006;SDS011;27696;42.704;23.304;2023-10-19T04:49:02;39.83;;;25.63;;
42006;SDS011;27696;42.704;23.304;2023-10-19T04:51:28;40.47;;;26.63;;
42006;SDS011;27696;42.704;23.304;2023-10-19T04:53:54;41.60;;;27.73;;
42006;SDS011;27696;42.704;23.304;2023-10-19T04:56:20;43.03;;;27.08;;
42006;SDS011;27696;42.704;23.304;2023-10-19T04:58:46;46.35;;;28.38;;
42006;SDS011;27696;42.704;23.304;2023-10-19T05:01:12;48.70;;;26.88;;
42006;SDS011;27696;42.704;23.304;2023-10-19T05:03:38;69.60;;;28.17;;
42006;SDS011;27696;42.704;23.304;2023-10-19T05:06:04;72.25;;;29.60;;
42006;SDS011;27696;42.704;23.304;2023-10-19T05:08:29;59.63;;;29.02;;
42006;SDS011;27696;42.704;23.304;2023-10-19T05:10:58;48.50;;;28.65;;
42006;SDS011;27696;42.704;23.304;2023-10-19T05:13:26;54.78;;;29.35;;
42006;SDS011;27696;42.704;23.304;2023-10-19T05:15:53;55.22;;;29.50;;
42006;SDS011;27696;42.704;23.304;2023-10-19T05:18:19;62.83;;;30.05;;
42006;SDS011;27696;42.704;23.304;2023-10-19T05:20:45;44.35;;;29.23;;
42006;SDS011;27696;42.704;23.304;2023-10-19T05:23:11;50.13;;;29.80;;
42006;SDS011;27696;42.704;23.304;2023-10-19T05:25:38;41.28;;;28.85;;
42006;SDS011;27696;42.704;23.304;2023-10-19T05:28:04;47.67;;;29.60;;
42006;SDS011;27696;42.704;23.304;2023-10-19T05:30:30;44.97;;;29.48;;
42006;SDS011;27696;42.704;23.304;2023-10-19T05:32:57;44.75;;;29.83;;
42006;SDS011;27696;42.704;23.304;2023-10-19T05:35:23;50.42;;;30.40;;
42006;SDS011;27696;42.704;23.304;2023-10-19T05:37:51;43.97;;;29.98;;
42006;SDS011;27696;42.704;23.304;2023-10-19T05:40:17;42.65;;;29.55;;
42006;SDS011;27696;42.704;23.304;2023-10-19T05:42:44;48.22;;;30.08;;
42006;SDS011;27696;42.704;23.304;2023-10-19T05:45:12;44.65;;;29.50;;
42006;SDS011;27696;42.704;23.304;2023-10-19T05:47:38;44.33;;;29.55;;
42006;SDS011;27696;42.704;23.304;2023-10-19T05:50:04;42.22;;;28.52;;
42006;SDS011;27696;42.704;23.304;2023-10-19T05:52:30;40.85;;;28.85;;
42006;SDS011;27696;42.704;23.304;2023-10-19T05:54:55;38.83;;;26.77;;
42006;SDS011;27696;42.704;23.304;2023-10-19T05:57:22;42.05;;;29.17;;
42006;SDS011;27696;42.704;23.304;2023-10-19T05:59:49;46.85;;;29.95;;
42006;SDS011;27696;42.704;23.304;2023-10-19T06:02:14;38.60;;;25.70;;
42006;SDS011;27696;42.704;23.304;2023-10-19T06:04:40;38.78;;;27.08;;
42006;SDS011;27696;42.704;23.304;2023-10-19T06:07:06;40.47;;;28.65;;
42006;SDS011;27696;42.704;23.304;2023-10-19T06:09:31;37.47;;;28.10;;
42006;SDS011;27696;42.704;23.304;2023-10-19T06:11:56;50.22;;;29.10;;
42006;SDS011;27696;42.704;23.304;2023-10-19T06:14:22;41.47;;;29.60;;
42006;SDS011;27696;42.704;23.304;2023-10-19T06:16:47;39.30;;;29.75;;
42006;SDS011;27696;42.704;23.304;2023-10-19T06:19:13;39.55;;;29.52;;
42006;SDS011;27696;42.704;23.304;2023-10-19T06:21:38;37.17;;;27.70;;
42006;SDS011;27696;42.704;23.304;2023-10-19T06:24:05;38.50;;;27.48;;
42006;SDS011;27696;42.704;23.304;2023-10-19T06:26:31;39.45;;;28.08;;
42006;SDS011;27696;42.704;23.304;2023-10-19T06:28:56;38.80;;;27.25;;
42006;SDS011;27696;42.704;23.304;2023-10-19T06:31:24;41.58;;;29.33;;
42006;SDS011;27696;42.704;23.304;2023-10-19T06:33:52;41.95;;;29.60;;
42006;SDS011;27696;42.704;23.304;2023-10-19T06:36:17;43.28;;;29.10;;
42006;SDS011;27696;42.704;23.304;2023-10-19T06:38:44;41.67;;;28.60;;
42006;SDS011;27696;42.704;23.304;2023-10-19T06:41:21;38.67;;;29.25;;
42006;SDS011;27696;42.704;23.304;2023-10-19T06:43:47;41.15;;;27.65;;
42006;SDS011;27696;42.704;23.304;2023-10-19T06:46:12;38.28;;;28.92;;
42006;SDS011;27696;42.704;23.304;2023-10-19T06:48:39;40.72;;;29.02;;
42006;SDS011;27696;42.704;23.304;2023-10-19T06:51:05;42.53;;;28.48;;
42006;SDS011;27696;42.704;23.304;2023-10-19T06:53:31;40.58;;;29.15;;
42006;SDS011;27696;42.704;23.304;2023-10-19T06:55:58;42.70;;;28.20;;
42006;SDS011;27696;42.704;23.304;2023-10-19T06:58:24;39.22;;;27.95;;
42006;SDS011;27696;42.704;23.304;2023-10-19T07:00:58;40.78;;;27.95;;
42006;SDS011;27696;42.704;23.304;2023-10-19T07:03:30;36.17;;;25.73;;
42006;SDS011;27696;42.704;23.304;2023-10-19T07:05:56;35.83;;;22.75;;
42006;SDS011;27696;42.704;23.304;2023-10-19T07:08:23;29.08;;;21.92;;
42006;SDS011;27696;42.704;23.304;2023-10-19T07:10:48;34.03;;;21.38;;
42006;SDS011;27696;42.704;23.304;2023-10-19T07:13:17;32.17;;;21.80;;
42006;SDS011;27696;42.704;23.304;2023-10-19T07:15:46;32.65;;;20.17;;
42006;SDS011;27696;42.704;23.304;2023-10-19T07:18:12;28.98;;;21.10;;
42006;SDS011;27696;42.704;23.304;2023-10-19T07:20:38;28.48;;;19.98;;
42006;SDS011;27696;42.704;23.304;2023-10-19T07:23:04;28.27;;;20.45;;
42006;SDS011;27696;42.704;23.304;2023-10-19T07:25:49;24.10;;;19.77;;
42006;SDS011;27696;42.704;23.304;2023-10-19T07:28:19;23.35;;;19.55;;
42006;SDS011;27696;42.704;23.304;2023-10-19T07:30:45;28.15;;;21.20;;
42006;SDS011;27696;42.704;23.304;2023-10-19T07:33:16;30.23;;;21.45;;
42006;SDS011;27696;42.704;23.304;2023-10-19T07:35:47;26.17;;;20.33;;
42006;SDS011;27696;42.704;23.304;2023-10-19T07:38:21;23.10;;;20.08;;
42006;SDS011;27696;42.704;23.304;2023-10-19T07:40:47;25.65;;;19.15;;
42006;SDS011;27696;42.704;23.304;2023-10-19T07:43:13;25.25;;;19.30;;
42006;SDS011;27696;42.704;23.304;2023-10-19T07:45:38;24.85;;;20.40;;
42006;SDS011;27696;42.704;23.304;2023-10-19T07:48:04;29.10;;;20.80;;
42006;SDS011;27696;42.704;23.304;2023-10-19T07:50:36;21.20;;;18.65;;
42006;SDS011;27696;42.704;23.304;2023-10-19T07:53:02;26.88;;;18.80;;
42006;SDS011;27696;42.704;23.304;2023-10-19T07:55:28;27.17;;;20.27;;
42006;SDS011;27696;42.704;23.304;2023-10-19T07:57:56;23.92;;;19.63;;
42006;SDS011;27696;42.704;23.304;2023-10-19T08:00:25;23.73;;;21.00;;
42006;SDS011;27696;42.704;23.304;2023-10-19T08:02:51;31.65;;;20.95;;
42006;SDS011;27696;42.704;23.304;2023-10-19T08:05:18;26.35;;;21.10;;
42006;SDS011;27696;42.704;23.304;2023-10-19T08:07:44;29.15;;;21.20;;
42006;SDS011;27696;42.704;23.304;2023-10-19T08:10:12;24.88;;;20.70;;
42006;SDS011;27696;42.704;23.304;2023-10-19T08:12:42;25.60;;;21.45;;
42006;SDS011;27696;42.704;23.304;2023-10-19T08:15:11;24.83;;;20.17;;
42006;SDS011;27696;42.704;23.304;2023-10-19T08:17:37;27.23;;;19.77;;
42006;SDS011;27696;42.704;23.304;2023-10-19T08:20:04;23.58;;;21.08;;
42006;SDS011;27696;42.704;23.304;2023-10-19T08:22:34;26.85;;;21.73;;
42006;SDS011;27696;42.704;23.304;2023-10-19T08:24:59;25.50;;;20.48;;
42006;SDS011;27696;42.704;23.304;2023-10-19T08:27:24;28.25;;;21.83;;
42006;SDS011;27696;42.704;23.304;2023-10-19T08:29:50;26.67;;;22.50;;
42006;SDS011;27696;42.704;23.304;2023-10-19T08:32:16;22.15;;;19.30;;
42006;SDS011;27696;42.704;23.304;2023-10-19T08:34:41;21.13;;;18.85;;
42006;SDS011;27696;42.704;23.304;2023-10-19T08:37:07;23.77;;;18.63;;
42006;SDS011;27696;42.704;23.304;2023-10-19T08:39:32;23.50;;;18.48;;
42006;SDS011;27696;42.704;23.304;2023-10-19T08:42:05;24.60;;;18.35;;
42006;SDS011;27696;42.704;23.304;2023-10-19T08:44:31;18.90;;;16.05;;
42006;SDS011;27696;42.704;23.304;2023-10-19T08:46:58;20.55;;;18.02;;
42006;SDS011;27696;42.704;23.304;2023-10-19T08:49:24;22.17;;;16.90;;
42006;SDS011;27696;42.704;23.304;2023-10-19T08:51:52;21.77;;;17.25;;
42006;SDS011;27696;42.704;23.304;2023-10-19T08:54:19;21.90;;;17.20;;
42006;SDS011;27696;42.704;23.304;2023-10-19T08:56:44;23.85;;;17.80;;
42006;SDS011;27696;42.704;23.304;2023-10-19T08:59:12;23.02;;;17.30;;
42006;SDS011;27696;42.704;23.304;2023-10-19T09:01:40;24.20;;;17.23;;
42006;SDS011;27696;42.704;23.304;2023-10-19T09:04:09;23.00;;;17.60;;
42006;SDS011;27696;42.704;23.304;2023-10-19T09:06:38;23.60;;;18.58;;
42006;SDS011;27696;42.704;23.304;2023-10-19T09:09:08;20.85;;;18.42;;
42006;SDS011;27696;42.704;23.304;2023-10-19T09:14:11;19.92;;;15.57;;
42006;SDS011;27696;42.704;23.304;2023-10-19T09:16:38;18.83;;;16.02;;
42006;SDS011;27696;42.704;23.304;2023-10-19T09:19:39;20.52;;;14.60;;
42006;SDS011;27696;42.704;23.304;2023-10-19T09:22:07;17.40;;;15.18;;
42006;SDS011;27696;42.704;23.304;2023-10-19T09:24:41;15.73;;;13.35;;
42006;SDS011;27696;42.704;23.304;2023-10-19T09:27:07;16.17;;;13.52;;
42006;SDS011;27696;42.704;23.304;2023-10-19T09:29:33;16.40;;;12.23;;
42006;SDS011;27696;42.704;23.304;2023-10-19T09:31:58;14.45;;;12.90;;
42006;SDS011;27696;42.704;23.304;2023-10-19T09:34:29;14.35;;;12.93;;
42006;SDS011;27696;42.704;23.304;2023-10-19T09:36:58;15.40;;;13.40;;
42006;SDS011;27696;42.704;23.304;2023-10-19T09:39:29;19.50;;;12.75;;
42006;SDS011;27696;42.704;23.304;2023-10-19T09:42:02;14.90;;;13.40;;
42006;SDS011;27696;42.704;23.304;2023-10-19T09:44:32;14.27;;;12.77;;
42006;SDS011;27696;42.704;23.304;2023-10-19T09:47:06;14.13;;;12.73;;
42006;SDS011;27696;42.704;23.304;2023-10-19T09:49:37;16.10;;;13.82;;
42006;SDS011;27696;42.704;23.304;2023-10-19T09:52:03;15.50;;;13.63;;
42006;SDS011;27696;42.704;23.304;2023-10-19T09:54:45;14.70;;;12.88;;
42006;SDS011;27696;42.704;23.304;2023-10-19T09:57:17;14.88;;;13.38;;
42006;SDS011;27696;42.704;23.304;2023-10-19T09:59:49;13.93;;;12.52;;
42006;SDS011;27696;42.704;23.304;2023-10-19T10:02:16;14.40;;;12.48;;
42006;SDS011;27696;42.704;23.304;2023-10-19T10:04:47;14.63;;;13.10;;
42006;SDS011;27696;42.704;23.304;2023-10-19T10:07:13;16.98;;;13.40;;
42006;SDS011;27696;42.704;23.304;2023-10-19T10:09:41;17.63;;;12.82;;
42006;SDS011;27696;42.704;23.304;2023-10-19T10:12:20;14.82;;;13.10;;
42006;SDS011;27696;42.704;23.304;2023-10-19T10:14:54;13.50;;;11.85;;
42006;SDS011;27696;42.704;23.304;2023-10-19T10:17:28;16.45;;;12.65;;
42006;SDS011;27696;42.704;23.304;2023-10-19T10:22:42;14.50;;;12.48;;
42006;SDS011;27696;42.704;23.304;2023-10-19T10:25:08;13.43;;;12.02;;
42006;SDS011;27696;42.704;23.304;2023-10-19T10:27:35;16.13;;;11.88;;
42006;SDS011;27696;42.704;23.304;2023-10-19T10:30:02;13.13;;;11.73;;
42006;SDS011;27696;42.704;23.304;2023-10-19T10:32:51;12.23;;;10.93;;
42006;SDS011;27696;42.704;23.304;2023-10-19T10:38:07;17.05;;;12.00;;
42006;SDS011;27696;42.704;23.304;2023-10-19T10:43:12;11.32;;;10.23;;
42006;SDS011;27696;42.704;23.304;2023-10-19T10:45:38;12.07;;;10.77;;
42006;SDS011;27696;42.704;23.304;2023-10-19T10:48:04;11.95;;;10.48;;
42006;SDS011;27696;42.704;23.304;2023-10-19T10:50:37;11.77;;;10.55;;
42006;SDS011;27696;42.704;23.304;2023-10-19T10:53:04;12.05;;;9.80;;
42006;SDS011;27696;42.704;23.304;2023-10-19T10:55:30;12.25;;;9.98;;
42006;SDS011;27696;42.704;23.304;2023-10-19T10:57:55;15.63;;;9.60;;
42006;SDS011;27696;42.704;23.304;2023-10-19T11:00:22;10.25;;;9.20;;
42006;SDS011;27696;42.704;23.304;2023-10-19T11:03:04;12.63;;;9.55;;
42006;SDS011;27696;42.704;23.304;2023-10-19T11:05:35;10.93;;;8.07;;
42006;SDS011;27696;42.704;23.304;2023-10-19T11:10:33;8.20;;;7.40;;
42006;SDS011;27696;42.704;23.304;2023-10-19T11:13:05;12.48;;;7.57;;
42006;SDS011;27696;42.704;23.304;2023-10-19T11:15:32;10.07;;;7.90;;
42006;SDS011;27696;42.704;23.304;2023-10-19T11:18:01;9.80;;;7.20;;
42006;SDS011;27696;42.704;23.304;2023-10-19T11:20:27;7.88;;;7.18;;
42006;SDS011;27696;42.704;23.304;2023-10-19T11:22:54;13.85;;;8.20;;
42006;SDS011;27696;42.704;23.304;2023-10-19T11:25:26;9.40;;;8.18;;
42006;SDS011;27696;42.704;23.304;2023-10-19T11:27:57;15.10;;;8.98;;
42006;SDS011;27696;42.704;23.304;2023-10-19T11:30:23;11.43;;;8.15;;
42006;SDS011;27696;42.704;23.304;2023-10-19T11:32:54;10.82;;;8.15;;
42006;SDS011;27696;42.704;23.304;2023-10-19T11:35:27;9.23;;;7.55;;
42006;SDS011;27696;42.704;23.304;2023-10-19T11:37:57;10.45;;;8.65;;
42006;SDS011;27696;42.704;23.304;2023-10-19T11:40:24;9.20;;;8.27;;
42006;SDS011;27696;42.704;23.304;2023-10-19T11:42:50;9.48;;;8.48;;
42006;SDS011;27696;42.704;23.304;2023-10-19T11:45:16;9.45;;;8.45;;
42006;SDS011;27696;42.704;23.304;2023-10-19T11:47:45;9.70;;;8.13;;
42006;SDS011;27696;42.704;23.304;2023-10-19T11:50:11;8.68;;;7.80;;
42006;SDS011;27696;42.704;23.304;2023-10-19T11:52:39;8.95;;;7.40;;
42006;SDS011;27696;42.704;23.304;2023-10-19T11:55:05;10.70;;;7.82;;
42006;SDS011;27696;42.704;23.304;2023-10-19T11:57:31;9.25;;;7.57;;
42006;SDS011;27696;42.704;23.304;2023-10-19T11:59:57;10.40;;;7.53;;
42006;SDS011;27696;42.704;23.304;2023-10-19T12:02:24;8.57;;;7.18;;
42006;SDS011;27696;42.704;23.304;2023-10-19T12:04:52;8.68;;;7.78;;
42006;SDS011;27696;42.704;23.304;2023-10-19T12:07:18;9.32;;;8.20;;
42006;SDS011;27696;42.704;23.304;2023-10-19T12:09:43;8.80;;;7.90;;
42006;SDS011;27696;42.704;23.304;2023-10-19T12:12:10;10.10;;;7.50;;
42006;SDS011;27696;42.704;23.304;2023-10-19T12:14:39;9.73;;;7.57;;
42006;SDS011;27696;42.704;23.304;2023-10-19T12:17:04;7.63;;;6.85;;
42006;SDS011;27696;42.704;23.304;2023-10-19T12:19:32;9.93;;;6.97;;
42006;SDS011;27696;42.704;23.304;2023-10-19T12:21:59;13.70;;;6.55;;
42006;SDS011;27696;42.704;23.304;2023-10-19T12:24:25;10.35;;;6.72;;
42006;SDS011;27696;42.704;23.304;2023-10-19T12:26:53;8.75;;;7.22;;
42006;SDS011;27696;42.704;23.304;2023-10-19T12:29:18;7.32;;;6.60;;
42006;SDS011;27696;42.704;23.304;2023-10-19T12:31:46;9.18;;;6.90;;
42006;SDS011;27696;42.704;23.304;2023-10-19T12:34:12;10.27;;;7.30;;
42006;SDS011;27696;42.704;23.304;2023-10-19T12:36:38;7.18;;;6.47;;
42006;SDS011;27696;42.704;23.304;2023-10-19T12:39:04;6.72;;;6.10;;
42006;SDS011;27696;42.704;23.304;2023-10-19T12:41:30;7.38;;;6.45;;
42006;SDS011;27696;42.704;23.304;2023-10-19T12:43:56;7.55;;;6.65;;
42006;SDS011;27696;42.704;23.304;2023-10-19T12:46:23;10.55;;;6.53;;
42006;SDS011;27696;42.704;23.304;2023-10-19T12:48:50;7.45;;;5.88;;
42006;SDS011;27696;42.704;23.304;2023-10-19T12:51:16;8.00;;;6.82;;
42006;SDS011;27696;42.704;23.304;2023-10-19T12:53:48;12.00;;;8.55;;
42006;SDS011;27696;42.704;23.304;2023-10-19T12:56:13;10.20;;;7.03;;
42006;SDS011;27696;42.704;23.304;2023-10-19T12:58:39;11.20;;;8.80;;
42006;SDS011;27696;42.704;23.304;2023-10-19T13:01:06;9.05;;;6.53;;
42006;SDS011;27696;42.704;23.304;2023-10-19T13:03:31;8.30;;;6.63;;
42006;SDS011;27696;42.704;23.304;2023-10-19T13:05:57;11.90;;;7.25;;
42006;SDS011;27696;42.704;23.304;2023-10-19T13:08:23;15.50;;;8.38;;
42006;SDS011;27696;42.704;23.304;2023-10-19T13:10:52;7.07;;;6.38;;
42006;SDS011;27696;42.704;23.304;2023-10-19T13:13:18;10.93;;;6.40;;
42006;SDS011;27696;42.704;23.304;2023-10-19T13:15:44;10.70;;;8.60;;
42006;SDS011;27696;42.704;23.304;2023-10-19T13:18:11;9.05;;;6.85;;
42006;SDS011;27696;42.704;23.304;2023-10-19T13:20:47;10.02;;;7.97;;
42006;SDS011;27696;42.704;23.304;2023-10-19T13:23:13;9.45;;;7.15;;
42006;SDS011;27696;42.704;23.304;2023-10-19T13:25:41;8.00;;;7.20;;
42006;SDS011;27696;42.704;23.304;2023-10-19T13:28:12;12.07;;;7.18;;
42006;SDS011;27696;42.704;23.304;2023-10-19T13:30:41;12.05;;;6.85;;
42006;SDS011;27696;42.704;23.304;2023-10-19T13:33:08;8.15;;;6.50;;
42006;SDS011;27696;42.704;23.304;2023-10-19T13:35:38;7.78;;;5.65;;
42006;SDS011;27696;42.704;23.304;2023-10-19T13:38:05;7.15;;;6.45;;
42006;SDS011;27696;42.704;23.304;2023-10-19T13:40:31;7.93;;;5.68;;
42006;SDS011;27696;42.704;23.304;2023-10-19T13:42:57;10.10;;;5.85;;
42006;SDS011;27696;42.704;23.304;2023-10-19T13:45:23;13.50;;;7.38;;
42006;SDS011;27696;42.704;23.304;2023-10-19T13:47:49;22.27;;;13.75;;
42006;SDS011;27696;42.704;23.304;2023-10-19T13:50:14;10.40;;;7.70;;
42006;SDS011;27696;42.704;23.304;2023-10-19T13:52:40;10.70;;;7.13;;
42006;SDS011;27696;42.704;23.304;2023-10-19T13:55:06;10.15;;;7.03;;
42006;SDS011;27696;42.704;23.304;2023-10-19T13:57:33;9.57;;;6.70;;
42006;SDS011;27696;42.704;23.304;2023-10-19T13:59:59;9.88;;;6.68;;
42006;SDS011;27696;42.704;23.304;2023-10-19T14:02:26;10.82;;;6.90;;
42006;SDS011;27696;42.704;23.304;2023-10-19T14:04:51;7.53;;;6.28;;
42006;SDS011;27696;42.704;23.304;2023-10-19T14:07:17;6.70;;;5.78;;
42006;SDS011;27696;42.704;23.304;2023-10-19T14:09:43;10.55;;;5.22;;
42006;SDS011;27696;42.704;23.304;2023-10-19T14:12:09;13.50;;;5.50;;
42006;SDS011;27696;42.704;23.304;2023-10-19T14:14:35;9.10;;;6.47;;
42006;SDS011;27696;42.704;23.304;2023-10-19T14:17:00;7.95;;;5.93;;
42006;SDS011;27696;42.704;23.304;2023-10-19T14:19:26;8.20;;;7.15;;
42006;SDS011;27696;42.704;23.304;2023-10-19T14:21:52;10.82;;;7.22;;
42006;SDS011;27696;42.704;23.304;2023-10-19T14:24:18;6.57;;;5.28;;
42006;SDS011;27696;42.704;23.304;2023-10-19T14:26:45;9.32;;;5.80;;
42006;SDS011;27696;42.704;23.304;2023-10-19T14:29:11;7.85;;;4.90;;
42006;SDS011;27696;42.704;23.304;2023-10-19T14:31:39;5.93;;;5.13;;
42006;SDS011;27696;42.704;23.304;2023-10-19T14:34:05;10.43;;;5.22;;
42006;SDS011;27696;42.704;23.304;2023-10-19T14:36:33;14.07;;;5.28;;
42006;SDS011;27696;42.704;23.304;2023-10-19T14:38:58;14.15;;;5.20;;
42006;SDS011;27696;42.704;23.304;2023-10-19T14:41:24;7.03;;;6.00;;